createdAt,value
2022-10-09T00:01:21.961Z,66.73
2022-10-09T00:03:51.928Z,66.58
2022-10-09T00:06:22.571Z,68.33
2022-10-09T00:08:50.766Z,68.95
2022-10-09T00:11:22.598Z,68.18
2022-10-09T00:13:51.958Z,69.18
2022-10-09T00:16:21.699Z,68.40
2022-10-09T00:18:50.314Z,68.91
2022-10-09T00:21:21.541Z,70.62
2022-10-09T00:23:50.774Z,70.10
2022-10-09T00:26:21.545Z,69.70
2022-10-09T00:28:50.574Z,70.21
2022-10-09T00:31:19.005Z,69.89
2022-10-09T00:33:47.484Z,69.64
2022-10-09T00:36:17.914Z,69.09
2022-10-09T00:38:46.240Z,69.09
2022-10-09T00:41:16.870Z,69.90
2022-10-09T00:43:48.993Z,70.59
2022-10-09T00:46:29.736Z,70.32
2022-10-09T00:49:03.945Z,69.53
2022-10-09T00:51:33.389Z,69.17
2022-10-09T00:54:03.084Z,69.85
2022-10-09T00:56:31.123Z,70.61
2022-10-09T00:59:01.129Z,70.65
2022-10-09T01:01:29.342Z,70.58
2022-10-09T01:03:57.595Z,69.39
2022-10-09T01:06:37.048Z,68.32
2022-10-09T01:09:10.365Z,68.17
2022-10-09T01:11:47.376Z,67.79
2022-10-09T01:14:24.060Z,67.88
2022-10-09T01:17:02.321Z,67.82
2022-10-09T01:19:51.479Z,67.35
2022-10-09T01:22:34.500Z,67.20
2022-10-09T01:25:08.050Z,68.67
2022-10-09T01:27:38.974Z,69.57
2022-10-09T01:30:10.289Z,68.45
2022-10-09T01:32:42.291Z,68.02
2022-10-09T01:35:12.997Z,68.12
2022-10-09T01:37:43.242Z,67.98
2022-10-09T01:40:14.917Z,67.55
2022-10-09T01:42:47.094Z,67.55
2022-10-09T01:45:16.276Z,67.61
2022-10-09T01:47:44.947Z,67.88
2022-10-09T01:50:22.126Z,67.89
2022-10-09T01:52:52.980Z,68.19
2022-10-09T01:55:30.070Z,68.48
2022-10-09T01:58:07.594Z,69.82
2022-10-09T02:00:38.726Z,69.59
2022-10-09T02:03:10.900Z,69.87
2022-10-09T02:05:41.181Z,69.26
2022-10-09T02:08:10.715Z,68.95
2022-10-09T02:10:41.017Z,69.02
2022-10-09T02:13:10.692Z,68.60
2022-10-09T02:15:46.676Z,70.01
2022-10-09T02:18:16.816Z,70.01
2022-10-09T02:20:49.708Z,70.07
2022-10-09T02:23:19.591Z,69.69
2022-10-09T02:25:47.904Z,69.52
2022-10-09T02:28:17.614Z,69.39
2022-10-09T02:30:57.808Z,70.01
2022-10-09T02:33:32.175Z,69.96
2022-10-09T02:36:00.473Z,70.53
2022-10-09T02:38:28.823Z,71.79
2022-10-09T02:41:00.060Z,71.82
2022-10-09T02:43:30.157Z,71.27
2022-10-09T02:45:58.413Z,71.50
2022-10-09T02:48:26.928Z,72.32
2022-10-09T02:50:55.084Z,71.95
2022-10-09T02:53:23.103Z,72.32
2022-10-09T02:55:51.225Z,72.52
2022-10-09T02:58:19.735Z,71.96
2022-10-09T03:00:52.054Z,72.15
2022-10-09T03:03:21.357Z,71.66
2022-10-09T03:05:49.958Z,71.53
2022-10-09T03:08:19.092Z,70.72
2022-10-09T03:10:47.452Z,70.42
2022-10-09T03:13:15.465Z,70.91
2022-10-09T03:15:44.004Z,70.68
2022-10-09T03:18:13.691Z,71.42
2022-10-09T03:20:41.621Z,72.01
2022-10-09T03:23:09.614Z,71.51
2022-10-09T03:25:37.821Z,71.18
2022-10-09T03:28:06.506Z,71.05
2022-10-09T03:30:34.626Z,71.62
2022-10-09T03:33:02.767Z,71.60
2022-10-09T03:35:32.429Z,71.99
2022-10-09T03:38:00.680Z,71.92
2022-10-09T03:40:29.017Z,71.24
2022-10-09T03:42:57.126Z,72.06
2022-10-09T03:45:25.416Z,71.39
2022-10-09T03:47:53.441Z,71.92
2022-10-09T03:50:21.502Z,72.34
2022-10-09T03:52:51.265Z,71.86
2022-10-09T03:55:19.494Z,71.97
2022-10-09T03:57:47.600Z,71.98
2022-10-09T04:00:16.900Z,72.21
2022-10-09T04:02:44.972Z,72.44
2022-10-09T04:05:13.023Z,72.64
2022-10-09T04:07:41.034Z,72.38
2022-10-09T04:10:11.232Z,72.28
2022-10-09T04:12:39.929Z,73.26
2022-10-09T04:15:09.366Z,73.35
2022-10-09T04:17:37.950Z,73.68
2022-10-09T04:20:06.786Z,74.33
2022-10-09T04:22:34.875Z,74.25
2022-10-09T04:25:02.832Z,73.98
2022-10-09T04:27:32.593Z,74.61
2022-10-09T04:30:00.640Z,73.92
2022-10-09T04:32:28.901Z,75.02
2022-10-09T04:34:56.993Z,74.45
2022-10-09T04:37:25.036Z,74.18
2022-10-09T04:39:53.100Z,74.35
2022-10-09T04:42:21.664Z,73.96
2022-10-09T04:44:51.106Z,74.81
2022-10-09T04:47:19.335Z,74.96
2022-10-09T04:49:47.619Z,74.44
2022-10-09T04:52:15.852Z,75.01
2022-10-09T04:54:44.012Z,75.11
2022-10-09T04:57:12.067Z,75.39
2022-10-09T04:59:40.127Z,74.80
2022-10-09T05:02:09.784Z,75.21
2022-10-09T05:04:38.284Z,74.75
2022-10-09T05:07:06.204Z,73.90
2022-10-09T05:09:34.200Z,73.66
2022-10-09T05:12:02.295Z,72.85
2022-10-09T05:14:30.285Z,71.46
2022-10-09T05:17:13.802Z,71.36
2022-10-09T05:19:43.920Z,70.78
2022-10-09T05:22:12.031Z,70.89
2022-10-09T05:24:39.937Z,70.15
2022-10-09T05:27:07.919Z,69.40
2022-10-09T05:29:35.854Z,69.96
2022-10-09T05:32:03.949Z,69.94
2022-10-09T05:34:31.929Z,70.43
2022-10-09T05:37:01.251Z,70.68
2022-10-09T05:39:29.377Z,70.53
2022-10-09T05:41:57.558Z,70.14
2022-10-09T05:44:25.650Z,70.13
2022-10-09T05:46:53.678Z,69.52
2022-10-09T05:49:21.851Z,69.21
2022-10-09T05:51:50.006Z,69.91
2022-10-09T05:54:19.803Z,69.95
2022-10-09T05:56:47.807Z,69.70
2022-10-09T05:59:19.648Z,69.28
2022-10-09T06:01:50.323Z,69.34
2022-10-09T06:04:20.421Z,69.32
2022-10-09T06:06:49.728Z,69.48
2022-10-09T06:09:22.490Z,69.98
2022-10-09T06:11:51.982Z,69.15
2022-10-09T06:14:22.205Z,69.12
2022-10-09T06:16:50.680Z,68.93
2022-10-09T06:19:20.420Z,69.25
2022-10-09T06:21:49.404Z,69.97
2022-10-09T06:24:26.934Z,69.48
2022-10-09T06:26:56.595Z,69.24
2022-10-09T06:29:24.662Z,68.57
2022-10-09T06:31:52.833Z,67.87
2022-10-09T06:34:21.261Z,67.39
2022-10-09T06:36:49.375Z,67.77
2022-10-09T06:39:17.857Z,67.39
2022-10-09T06:41:47.276Z,66.89
2022-10-09T06:44:17.344Z,67.20
2022-10-09T06:46:46.942Z,67.46
2022-10-09T06:49:15.174Z,68.00
2022-10-09T06:51:43.287Z,67.82
2022-10-09T06:54:13.321Z,68.32
2022-10-09T06:56:42.031Z,68.01
2022-10-09T06:59:13.577Z,67.14
2022-10-09T07:01:41.931Z,66.61
2022-10-09T07:04:12.937Z,66.85
2022-10-09T07:06:42.741Z,66.50
2022-10-09T07:09:13.109Z,66.45
2022-10-09T07:11:43.259Z,66.14
2022-10-09T07:14:15.915Z,66.06
2022-10-09T07:16:46.925Z,66.23
2022-10-09T07:19:17.764Z,66.30
2022-10-09T07:21:48.019Z,64.83
2022-10-09T07:24:17.289Z,64.03
2022-10-09T07:26:47.135Z,63.33
2022-10-09T07:29:17.950Z,62.91
2022-10-09T07:31:46.731Z,63.12
2022-10-09T07:34:14.787Z,62.17
2022-10-09T07:36:42.954Z,61.57
2022-10-09T07:39:11.270Z,60.88
2022-10-09T07:41:39.339Z,60.31
2022-10-09T07:44:07.298Z,60.44
2022-10-09T07:46:36.788Z,60.09
2022-10-09T07:49:05.914Z,59.56
2022-10-09T07:51:34.496Z,59.40
2022-10-09T07:54:03.022Z,59.20
2022-10-09T07:56:32.790Z,59.58
2022-10-09T07:59:03.873Z,59.01
2022-10-09T08:01:33.832Z,58.62
2022-10-09T08:04:04.370Z,58.07
2022-10-09T08:06:32.904Z,57.21
2022-10-09T08:09:02.459Z,57.44
2022-10-09T08:11:31.248Z,56.82
2022-10-09T08:13:59.875Z,56.56
2022-10-09T08:16:28.992Z,56.11
2022-10-09T08:18:58.796Z,55.24
2022-10-09T08:21:29.111Z,55.46
2022-10-09T08:23:58.950Z,55.53
2022-10-09T08:26:28.958Z,55.01
2022-10-09T08:28:59.341Z,54.51
2022-10-09T08:31:28.602Z,54.84
2022-10-09T08:33:58.312Z,54.53
2022-10-09T08:36:28.386Z,54.24
2022-10-09T08:38:56.695Z,53.18
2022-10-09T08:41:35.630Z,53.08
2022-10-09T08:44:07.297Z,52.38
2022-10-09T08:46:45.318Z,51.46
2022-10-09T08:49:26.141Z,51.54
2022-10-09T08:51:59.285Z,51.74
2022-10-09T08:54:34.591Z,51.28
2022-10-09T08:57:05.618Z,50.91
2022-10-09T08:59:33.680Z,50.62
2022-10-09T09:02:09.752Z,49.86
2022-10-09T09:05:02.799Z,49.70
2022-10-09T09:07:43.523Z,49.93
2022-10-09T09:10:18.923Z,49.57
2022-10-09T09:12:52.087Z,50.03
2022-10-09T09:15:40.204Z,49.28
2022-10-09T09:18:22.912Z,48.70
2022-10-09T09:20:54.239Z,47.96
2022-10-09T09:23:28.169Z,48.12
2022-10-09T09:25:57.084Z,48.06
2022-10-09T09:28:30.415Z,47.98
2022-10-09T09:31:03.340Z,48.17
2022-10-09T09:33:42.349Z,48.47
2022-10-09T09:36:19.082Z,48.20
2022-10-09T09:39:26.006Z,47.62
2022-10-09T09:41:38.802Z,46.38
2022-10-09T09:44:08.813Z,45.94
2022-10-09T09:46:38.782Z,44.98
2022-10-09T09:49:17.153Z,44.87
2022-10-09T09:51:45.797Z,45.35
2022-10-09T09:54:20.738Z,45.70
2022-10-09T09:59:40.128Z,45.55
2022-10-09T10:02:14.992Z,45.13
2022-10-09T10:04:52.170Z,44.78
2022-10-09T10:07:33.673Z,45.21
2022-10-09T10:10:11.561Z,44.91
2022-10-09T10:12:41.953Z,44.78
2022-10-09T10:15:22.643Z,44.48
2022-10-09T10:18:00.117Z,44.55
2022-10-09T10:20:29.701Z,44.09
2022-10-09T10:22:59.427Z,42.65
2022-10-09T10:25:33.211Z,42.78
2022-10-09T10:28:07.152Z,42.66
2022-10-09T10:30:36.611Z,43.18
2022-10-09T10:33:14.917Z,42.60
2022-10-09T10:35:45.396Z,43.22
2022-10-09T10:38:18.996Z,42.23
2022-10-09T10:40:54.008Z,42.55
2022-10-09T10:43:36.805Z,42.28
2022-10-09T10:46:13.412Z,41.16
2022-10-09T10:48:43.011Z,41.45
2022-10-09T10:51:45.118Z,41.17
2022-10-09T10:54:32.172Z,39.83
2022-10-09T10:57:09.721Z,41.11
2022-10-09T10:59:43.159Z,41.82
2022-10-09T11:02:50.292Z,41.88
2022-10-09T11:05:27.168Z,40.87
2022-10-09T11:08:09.157Z,40.66
2022-10-09T11:10:46.082Z,40.90
2022-10-09T11:13:24.127Z,40.88
2022-10-09T11:16:01.642Z,40.60
2022-10-09T11:18:47.762Z,39.82
2022-10-09T11:21:28.798Z,39.71
2022-10-09T11:24:13.035Z,39.14
2022-10-09T11:26:49.233Z,39.41
2022-10-09T11:29:24.385Z,39.23
2022-10-09T11:31:57.331Z,38.94
2022-10-09T11:34:31.598Z,39.08
2022-10-09T11:37:01.627Z,38.60
2022-10-09T11:39:33.527Z,38.59
2022-10-09T11:42:02.181Z,39.17
2022-10-09T11:44:43.920Z,39.58
2022-10-09T11:47:23.411Z,39.84
2022-10-09T11:50:15.949Z,39.27
2022-10-09T11:52:51.433Z,39.82
2022-10-09T11:55:23.101Z,39.23
2022-10-09T11:57:51.507Z,39.03
2022-10-09T12:00:32.508Z,39.28
2022-10-09T12:03:03.243Z,37.76
2022-10-09T12:05:39.934Z,38.35
2022-10-09T12:08:14.099Z,38.19
2022-10-09T12:10:52.053Z,37.25
2022-10-09T12:13:42.101Z,37.60
2022-10-09T12:16:36.876Z,37.77
2022-10-09T12:19:12.566Z,37.89
2022-10-09T12:21:48.521Z,37.32
2022-10-09T12:24:21.040Z,37.98
2022-10-09T12:26:51.439Z,38.23
2022-10-09T12:29:28.851Z,37.89
2022-10-09T12:32:04.160Z,37.08
2022-10-09T12:34:35.805Z,37.55
2022-10-09T12:37:18.931Z,37.70
2022-10-09T12:39:47.972Z,37.57
2022-10-09T12:42:23.012Z,37.06
2022-10-09T12:44:53.677Z,36.88
2022-10-09T12:47:27.066Z,37.71
2022-10-09T12:50:02.888Z,37.44
2022-10-09T12:52:32.686Z,36.88
2022-10-09T12:55:03.112Z,36.52
2022-10-09T12:57:31.433Z,36.33
2022-10-09T12:59:59.850Z,35.95
2022-10-09T13:02:29.345Z,37.07
2022-10-09T13:05:00.662Z,36.38
2022-10-09T13:07:32.517Z,35.71
2022-10-09T13:10:07.616Z,36.64
2022-10-09T13:12:36.420Z,35.85
2022-10-09T13:15:06.686Z,35.40
2022-10-09T13:17:38.917Z,35.37
2022-10-09T13:20:26.618Z,34.97
2022-10-09T13:22:55.994Z,34.93
2022-10-09T13:25:24.512Z,35.11
2022-10-09T13:27:53.036Z,35.87
2022-10-09T13:30:21.277Z,35.64
2022-10-09T13:32:50.949Z,36.00
2022-10-09T13:35:18.932Z,36.33
2022-10-09T13:37:47.207Z,36.54
2022-10-09T13:40:19.878Z,36.42
2022-10-09T13:42:53.914Z,37.02
2022-10-09T13:45:21.920Z,35.79
2022-10-09T13:47:51.886Z,35.67
2022-10-09T13:50:20.831Z,36.36
2022-10-09T13:52:48.904Z,36.28
2022-10-09T13:55:17.307Z,36.23
2022-10-09T13:57:45.465Z,36.31
2022-10-09T14:00:14.682Z,37.44
2022-10-09T14:02:42.609Z,37.14
2022-10-09T14:05:12.369Z,36.21
2022-10-09T14:07:40.263Z,35.33
2022-10-09T14:10:08.964Z,35.71
2022-10-09T14:12:37.214Z,36.71
2022-10-09T14:15:06.014Z,36.87
2022-10-09T14:17:33.975Z,36.33
2022-10-09T14:20:01.960Z,36.55
2022-10-09T14:22:31.362Z,36.84
2022-10-09T14:24:59.238Z,37.36
2022-10-09T14:27:27.259Z,37.32
2022-10-09T14:29:57.241Z,37.96
2022-10-09T14:32:25.680Z,37.28
2022-10-09T14:34:54.017Z,37.17
2022-10-09T14:37:40.672Z,37.52
2022-10-09T14:40:12.702Z,37.65
2022-10-09T14:42:41.315Z,38.04
2022-10-09T14:45:10.839Z,37.63
2022-10-09T14:47:38.947Z,37.45
2022-10-09T14:50:07.849Z,37.74
2022-10-09T14:52:35.964Z,37.83
2022-10-09T14:55:03.938Z,37.94
2022-10-09T14:57:35.529Z,39.39
2022-10-09T15:00:05.631Z,39.35
2022-10-09T15:02:33.710Z,38.51
2022-10-09T15:05:01.784Z,38.92
2022-10-09T15:07:29.949Z,38.98
2022-10-09T15:09:58.072Z,39.06
2022-10-09T15:12:26.432Z,38.95
2022-10-09T15:14:55.838Z,39.45
2022-10-09T15:17:23.878Z,39.38
2022-10-09T15:19:54.086Z,39.91
2022-10-09T15:22:22.049Z,40.14
2022-10-09T15:24:50.654Z,40.67
2022-10-09T15:27:19.494Z,40.38
2022-10-09T15:29:47.728Z,40.76
2022-10-09T15:32:18.130Z,40.92
2022-10-09T15:34:46.194Z,41.02
2022-10-09T15:37:14.350Z,40.87
2022-10-09T15:39:42.648Z,41.15
2022-10-09T15:42:10.775Z,41.54
2022-10-09T15:44:38.744Z,41.80
2022-10-09T15:47:06.844Z,41.32
2022-10-09T15:49:36.780Z,41.70
2022-10-09T15:52:05.246Z,41.98
2022-10-09T15:54:33.285Z,42.04
2022-10-09T15:57:02.147Z,42.02
2022-10-09T15:59:31.705Z,42.38
2022-10-09T16:01:59.703Z,41.98
2022-10-09T16:04:29.048Z,42.58
2022-10-09T16:06:59.246Z,42.71
2022-10-09T16:09:27.600Z,42.76
2022-10-09T16:11:55.829Z,43.16
2022-10-09T16:14:23.967Z,42.96
2022-10-09T16:16:52.066Z,43.41
2022-10-09T16:19:20.223Z,43.54
2022-10-09T16:21:49.839Z,43.99
2022-10-09T16:24:20.259Z,44.18
2022-10-09T16:26:51.044Z,44.20
2022-10-09T16:29:19.596Z,44.22
2022-10-09T16:31:47.622Z,44.70
2022-10-09T16:34:15.680Z,44.92
2022-10-09T16:36:44.265Z,45.33
2022-10-09T16:39:12.536Z,45.64
2022-10-09T16:41:42.282Z,45.85
2022-10-09T16:44:13.842Z,46.76
2022-10-09T16:46:42.043Z,47.19
2022-10-09T16:49:19.887Z,47.43
2022-10-09T16:51:50.842Z,47.18
2022-10-09T16:54:18.883Z,46.87
2022-10-09T16:56:48.310Z,46.95
2022-10-09T16:59:16.325Z,46.96
2022-10-09T17:01:47.003Z,47.87
2022-10-09T17:04:15.091Z,48.12
2022-10-09T17:06:44.135Z,48.25
2022-10-09T17:09:14.472Z,48.83
2022-10-09T17:11:43.339Z,49.04
2022-10-09T17:14:13.030Z,49.34
2022-10-09T17:16:42.941Z,49.30
2022-10-09T17:19:11.256Z,49.03
2022-10-09T17:21:39.408Z,49.80
2022-10-09T17:24:08.647Z,49.88
2022-10-09T17:26:36.960Z,49.88
2022-10-09T17:29:05.402Z,50.43
2022-10-09T17:31:35.406Z,50.94
2022-10-09T17:34:05.684Z,50.91
2022-10-09T17:36:36.857Z,51.36
2022-10-09T17:39:06.149Z,51.73
2022-10-09T17:41:35.738Z,51.81
2022-10-09T17:44:04.137Z,52.10
2022-10-09T17:46:32.767Z,52.10
2022-10-09T17:49:02.362Z,52.44
2022-10-09T17:51:32.567Z,52.75
2022-10-09T17:54:03.254Z,52.99
2022-10-09T17:56:33.182Z,53.20
2022-10-09T17:59:02.813Z,53.19
2022-10-09T18:01:31.320Z,53.31
2022-10-09T18:04:01.258Z,54.20
2022-10-09T18:06:32.460Z,54.37
2022-10-09T18:09:00.610Z,54.63
2022-10-09T18:11:30.007Z,55.56
2022-10-09T18:13:58.157Z,55.73
2022-10-09T18:16:35.441Z,55.87
2022-10-09T18:19:07.911Z,56.12
2022-10-09T18:21:36.790Z,55.94
2022-10-09T18:24:05.290Z,56.37
2022-10-09T18:26:33.625Z,58.88
2022-10-09T18:29:02.423Z,58.47
2022-10-09T18:31:31.202Z,59.40
2022-10-09T18:34:00.746Z,59.13
2022-10-09T18:36:36.530Z,61.04
2022-10-09T18:39:08.105Z,59.55
2022-10-09T18:41:37.560Z,59.56
2022-10-09T18:44:07.338Z,59.28
2022-10-09T18:46:39.139Z,58.36
2022-10-09T18:49:09.696Z,57.56
2022-10-09T18:51:42.360Z,57.93
2022-10-09T18:54:17.143Z,58.36
2022-10-09T18:56:46.363Z,57.30
2022-10-09T18:59:16.782Z,57.48
2022-10-09T19:01:45.025Z,57.63
2022-10-09T19:04:13.546Z,57.25
2022-10-09T19:06:42.956Z,57.14
2022-10-09T19:09:11.130Z,58.14
2022-10-09T19:11:39.883Z,58.61
2022-10-09T19:14:08.041Z,58.54
2022-10-09T19:16:36.340Z,58.26
2022-10-09T19:19:04.916Z,58.77
2022-10-09T19:21:33.150Z,58.76
2022-10-09T19:24:06.914Z,59.17
2022-10-09T19:26:35.451Z,59.45
2022-10-09T19:29:06.725Z,59.68
2022-10-09T19:31:35.596Z,60.65
2022-10-09T19:34:05.187Z,60.33
2022-10-09T19:36:35.118Z,60.27
2022-10-09T19:39:06.492Z,60.56
2022-10-09T19:41:34.532Z,60.82
2022-10-09T19:44:02.645Z,60.63
2022-10-09T19:46:31.002Z,60.72
2022-10-09T19:48:58.962Z,60.97
2022-10-09T19:51:27.920Z,61.04
2022-10-09T19:53:56.199Z,61.41
2022-10-09T19:56:28.191Z,61.52
2022-10-09T19:58:58.013Z,61.44
2022-10-09T20:01:28.030Z,61.57
2022-10-09T20:03:57.246Z,61.17
2022-10-09T20:06:25.534Z,61.17
2022-10-09T20:08:54.258Z,61.09
2022-10-09T20:11:23.348Z,61.56
2022-10-09T20:13:55.997Z,61.58
2022-10-09T20:16:25.737Z,62.23
2022-10-09T20:18:56.048Z,63.23
2022-10-09T20:21:24.248Z,63.51
2022-10-09T20:23:52.868Z,63.10
2022-10-09T20:26:23.310Z,63.61
2022-10-09T20:28:53.967Z,63.62
2022-10-09T20:31:24.797Z,64.46
2022-10-09T20:33:53.694Z,65.26
2022-10-09T20:36:24.025Z,65.40
2022-10-09T20:38:52.257Z,66.02
2022-10-09T20:41:20.235Z,66.84
2022-10-09T20:43:53.118Z,66.88
2022-10-09T20:46:22.565Z,66.41
2022-10-09T20:48:51.407Z,66.25
2022-10-09T20:51:21.171Z,66.97
2022-10-09T20:53:55.858Z,67.79
2022-10-09T20:56:25.578Z,67.59
2022-10-09T20:58:55.291Z,68.08
2022-10-09T21:01:24.150Z,67.34
2022-10-09T21:03:52.319Z,66.38
2022-10-09T21:06:23.163Z,68.09
2022-10-09T21:08:51.507Z,67.05
2022-10-09T21:11:20.747Z,68.18
2022-10-09T21:13:49.531Z,67.67
2022-10-09T21:16:21.923Z,67.61
2022-10-09T21:18:53.800Z,68.12
2022-10-09T21:21:21.915Z,67.17
2022-10-09T21:23:51.953Z,67.19
2022-10-09T21:26:23.432Z,68.21
2022-10-09T21:28:58.243Z,67.62
2022-10-09T21:31:31.243Z,67.52
2022-10-09T21:34:00.311Z,68.07
2022-10-09T21:36:35.538Z,68.98
2022-10-09T21:39:03.761Z,68.85
2022-10-09T21:41:32.952Z,69.34
2022-10-09T21:44:00.920Z,69.03
2022-10-09T21:46:30.536Z,68.52
2022-10-09T21:48:58.905Z,69.39
2022-10-09T21:51:27.904Z,69.39
2022-10-09T21:53:56.606Z,68.81
2022-10-09T21:56:24.855Z,68.52
2022-10-09T21:58:52.892Z,68.81
2022-10-09T22:01:20.889Z,68.05
2022-10-09T22:03:50.247Z,69.06
2022-10-09T22:06:19.496Z,68.35
2022-10-09T22:08:47.995Z,68.28
2022-10-09T22:11:17.128Z,68.23
2022-10-09T22:13:45.319Z,68.60
2022-10-09T22:16:15.524Z,68.70
2022-10-09T22:18:44.126Z,68.13
2022-10-09T22:21:16.306Z,68.24
2022-10-09T22:23:44.892Z,68.70
2022-10-09T22:26:14.634Z,69.38
2022-10-09T22:28:42.837Z,69.84
2022-10-09T22:31:14.349Z,69.18
2022-10-09T22:33:42.925Z,69.17
2022-10-09T22:36:14.537Z,69.18
2022-10-09T22:38:43.053Z,69.34
2022-10-09T22:41:13.791Z,69.94
2022-10-09T22:43:42.521Z,70.18
2022-10-09T22:46:13.448Z,70.48
2022-10-09T22:48:42.229Z,70.57
2022-10-09T22:51:12.313Z,70.80
2022-10-09T22:53:41.940Z,70.22
2022-10-09T22:56:12.783Z,70.88
2022-10-09T22:58:40.860Z,70.78
2022-10-09T23:01:11.178Z,70.98
2022-10-09T23:03:39.226Z,71.54
2022-10-09T23:06:09.346Z,72.10
2022-10-09T23:08:38.866Z,71.64
2022-10-09T23:11:08.830Z,71.21
2022-10-09T23:13:37.664Z,71.74
2022-10-09T23:16:07.838Z,71.30
2022-10-09T23:18:37.395Z,71.18
2022-10-09T23:21:07.031Z,71.15
2022-10-09T23:23:35.280Z,72.25
2022-10-09T23:26:05.884Z,73.57
2022-10-09T23:28:35.828Z,72.41
2022-10-09T23:31:04.728Z,72.54
2022-10-09T23:33:33.326Z,72.06
2022-10-09T23:36:03.114Z,72.37
2022-10-09T23:38:31.133Z,72.18
2022-10-09T23:41:00.827Z,72.07
2022-10-09T23:43:29.710Z,71.65
2022-10-09T23:46:00.805Z,71.24
2022-10-09T23:48:29.761Z,71.19
2022-10-09T23:50:58.130Z,71.89
2022-10-09T23:53:27.610Z,71.72
2022-10-09T23:55:55.907Z,72.09
2022-10-09T23:58:23.985Z,72.99
